Latest Weather Observations for Munglinup West

IDW60801

Issued at 12:43 pm WST Monday 30 March 2020 (issued every 10 minutes, with the page automatically refreshed every 10 minutes)

About weather observations | Map of weather stations | Latest weather observations for WA | Other Formats
Station Details ID: 012044 Name: MUNGLINUP WEST Lat: -33.55 Lon: 120.70 Height: 220.0 m
Data from the previous 72 hours. | See also: Recent months at Munglinup West
Date/Time
WST
Temp
°C
App
Temp
°C
Dew
Point
°C
Rel
Hum
%
Delta-T
°C
Wind Press
QNH
hPa
Press
MSL
hPa
Rain since
9am
mm
Dir  Spd
km/h
Gust
km/h
Spd
kts
Gust
kts
30/12:30pm 22.4 19.6 7.0 37 8.0 SW 11 17 6 9 1017.3 1016.5 0.0
30/12:00pm 22.4 18.8 6.6 36 8.1 W 15 24 8 13 1018.1 1017.4 0.0
30/11:30am 20.9 18.2 7.5 42 7.0 W 11 17 6 9 1018.7 1018.0 0.0
30/11:00am 21.7 19.2 8.2 42 7.1 NW 11 22 6 12 1019.2 1018.5 0.0
30/10:30am 19.4 17.3 8.4 49 5.8 WNW 9 13 5 7 1019.9 1019.1 0.0
30/10:00am 19.6 17.8 9.5 52 5.4 WNW 9 13 5 7 1020.1 1019.3 0.0
30/09:30am 18.7 16.6 9.8 56 4.8 WSW 11 17 6 9 1020.3 1019.5 0.0
30/09:00am 18.3 17.6 11.4 64 3.8 NNW 6 9 3 5 1020.3 1019.5 0.0
30/08:30am 17.2 15.5 12.5 74 2.6 NNW 13 17 7 9 1020.5 1019.7 0.0
30/08:00am 15.9 15.4 13.9 88 1.1 NNW 9 13 5 7 1020.3 1019.5 0.0
30/07:30am 13.6 13.2 13.0 96 0.3 NNW 7 9 4 5 1020.2 1019.4 0.0
30/07:00am 11.7 10.8 11.5 99 0.1 N 7 11 4 6 1019.8 1019.0 0.0
30/06:30am 10.6 9.1 10.4 99 0.1 N 9 11 5 6 1019.5 1018.8 0.0
30/06:00am 10.3 8.6 10.0 98 0.2 N 9 13 5 7 1019.2 1018.5 0.0
30/05:30am 10.5 8.9 10.2 98 0.2 N 9 11 5 6 1019.0 1018.3 0.0
30/05:00am 10.2 8.5 9.9 98 0.2 N 9 11 5 6 1018.9 1018.2 0.0
30/04:30am 10.0 8.6 9.5 97 0.3 N 7 9 4 5 1018.8 1018.1 0.0
30/04:00am 10.6 9.4 10.3 98 0.2 N 7 9 4 5 1018.8 1018.1 0.0
30/03:30am 10.6 9.4 10.3 98 0.2 NNW 7 7 4 4 1018.7 1018.0 0.0
30/03:00am 10.7 9.5 10.2 97 0.3 N 7 7 4 4 1018.6 1017.9 0.0
30/02:30am 10.7 9.5 10.2 97 0.3 N 7 7 4 4 1018.5 1017.8 0.0
30/02:00am 10.4 9.1 10.1 98 0.2 N 7 7 4 4 1018.7 1018.0 0.0
30/01:30am 10.3 9.0 9.8 97 0.3 N 7 7 4 4 1018.6 1017.9 0.0
30/01:00am 10.6 9.3 10.1 97 0.3 N 7 9 4 5 1018.7 1018.0 0.0
30/12:30am 10.5 9.8 9.9 96 0.3 NNE 4 6 2 3 1018.7 1018.0 0.0
30/12:00am 11.6 11.9 11.0 96 0.3 CALM 0 0 0 0 1018.9 1018.2 0.0
 
Date/Time
WST
Temp
°C
App
Temp
°C
Dew
Point
°C
Rel
Hum
%
Delta-T
°C
Wind Press
QNH
hPa
Press
MSL
hPa
Rain since
9am
mm
Dir  Spd
km/h
Gust
km/h
Spd
kts
Gust
kts
29/11:30pm 11.7 11.5 10.6 93 0.6 S 2 2 1 1 1019.0 1018.3 0.0
29/11:00pm 12.6 12.4 11.7 94 0.5 S 4 4 2 2 1019.1 1018.4 0.0
29/10:30pm 12.1 11.2 10.7 91 0.7 S 6 6 3 3 1019.3 1018.6 0.0
29/10:00pm 12.9 12.1 11.1 89 1.0 SSE 6 6 3 3 1019.3 1018.6 0.0
29/09:30pm 13.5 12.7 11.7 89 1.0 SE 7 7 4 4 1019.4 1018.7 0.0
29/09:00pm 13.0 12.2 11.1 88 1.0 SE 6 7 3 4 1019.3 1018.6 0.0
29/08:30pm 13.1 12.2 10.5 84 1.4 SSE 6 6 3 3 1019.2 1018.5 0.0
29/08:00pm 13.7 12.6 10.1 79 1.9 S 6 11 3 6 1019.1 1018.4 0.0
29/07:30pm 14.6 13.0 10.2 75 2.3 SSW 9 13 5 7 1018.7 1018.0 0.0
29/07:00pm 15.4 13.3 9.7 69 3.0 S 11 17 6 9 1018.3 1017.6 0.0
29/06:30pm 16.0 12.6 9.2 64 3.5 SSW 17 20 9 11 1017.9 1017.2 0.0
29/06:00pm 16.8 13.7 9.0 60 4.1 S 15 20 8 11 1017.6 1016.9 0.0
29/05:30pm 17.8 14.0 9.2 57 4.5 S 19 26 10 14 1017.3 1016.5 0.0
29/05:00pm 18.8 15.0 9.0 53 5.2 S 19 26 10 14 1017.0 1016.2 0.0
29/04:30pm 19.7 15.5 9.9 53 5.3 SSE 22 32 12 17 1016.8 1016.0 0.0
29/04:00pm 20.8 16.8 9.1 47 6.3 S 20 32 11 17 1016.5 1015.7 0.0
29/03:30pm 22.3 17.9 4.8 32 8.7 SW 17 28 9 15 1016.5 1015.7 0.0
29/03:00pm 23.3 19.4 5.2 31 9.1 W 15 24 8 13 1016.5 1015.7 0.0
29/02:30pm 22.3 17.5 4.8 32 8.7 W 19 30 10 16 1016.4 1015.6 0.0
29/02:00pm 22.4 17.8 5.4 33 8.6 WNW 19 33 10 18 1016.4 1015.6 0.0
29/01:30pm 22.7 18.3 6.5 35 8.4 WSW 19 41 10 22 1016.5 1015.7 0.0
29/01:00pm 21.8 17.4 6.5 37 7.8 WNW 19 32 10 17 1016.8 1016.0 0.0
29/12:30pm 21.0 16.0 6.5 39 7.4 W 22 33 12 18 1017.2 1016.4 0.0
29/12:00pm 20.3 15.8 6.3 40 7.1 WNW 19 30 10 16 1017.5 1016.8 0.0
29/11:30am 20.0 15.8 7.4 44 6.5 W 19 26 10 14 1017.8 1017.1 0.0
29/11:00am 19.2 14.8 6.7 44 6.3 W 19 28 10 15 1017.8 1017.1 0.0
29/10:30am 19.4 14.5 6.8 44 6.4 W 22 35 12 19 1018.0 1017.3 0.0
29/10:00am 18.0 13.6 7.4 50 5.4 W 20 33 11 18 1018.1 1017.4 0.0
29/09:30am 17.7 13.3 7.2 50 5.3 W 20 33 11 18 1018.1 1017.4 0.0
29/09:00am 17.3 13.3 8.4 56 4.6 W 19 26 10 14 1018.0 1017.3 0.0
29/08:30am 15.8 12.4 9.0 64 3.5 W 17 24 9 13 1017.9 1017.2 0.0
29/08:00am 14.7 11.0 9.5 71 2.7 W 19 22 10 12 1017.6 1016.9 0.0
29/07:30am 12.6 10.5 9.6 82 1.5 W 11 19 6 10 1017.5 1016.8 0.0
29/07:00am 11.0 9.2 9.6 91 0.7 NW 9 13 5 7 1017.2 1016.4 0.0
29/06:30am 9.5 7.5 8.7 95 0.4 NNW 9 11 5 6 1017.0 1016.2 0.0
29/06:00am 10.0 8.4 8.8 92 0.6 NW 7 7 4 4 1016.7 1015.9 0.0
29/05:30am 10.7 9.2 9.1 90 0.8 WNW 7 9 4 5 1016.5 1015.7 0.0
29/05:00am 11.4 10.1 9.3 87 1.1 WNW 6 9 3 5 1016.4 1015.6 0.0
29/04:30am 12.2 10.4 9.6 84 1.3 WNW 9 13 5 7 1016.4 1015.6 0.0
29/04:00am 13.0 11.0 10.0 82 1.6 W 11 17 6 9 1016.3 1015.5 0.0
29/03:30am 13.2 11.2 10.2 82 1.6 W 11 15 6 8 1016.0 1015.2 0.0
29/03:00am 12.9 10.9 10.3 84 1.4 WNW 11 17 6 9 1016.3 1015.5 0.0
29/02:30am 12.5 11.4 10.7 89 0.9 WNW 7 11 4 6 1016.4 1015.6 0.0
29/02:00am 12.6 11.2 10.8 89 0.9 NW 9 13 5 7 1016.4 1015.6 0.0
29/01:30am 12.9 12.1 11.1 89 1.0 NW 6 9 3 5 1016.3 1015.5 0.0
29/01:00am 13.8 13.0 11.7 87 1.1 WNW 7 11 4 6 1016.2 1015.4 0.0
29/12:30am 13.6 12.7 11.3 86 1.2 WNW 7 9 4 5 1016.1 1015.3 0.0
29/12:00am 14.4 13.9 11.9 85 1.4 W 6 7 3 4 1016.1 1015.3 0.0
 
Date/Time
WST
Temp
°C
App
Temp
°C
Dew
Point
°C
Rel
Hum
%
Delta-T
°C
Wind Press
QNH
hPa
Press
MSL
hPa
Rain since
9am
mm
Dir  Spd
km/h
Gust
km/h
Spd
kts
Gust
kts
28/11:30pm 14.8 14.2 12.3 85 1.4 WSW 7 7 4 4 1016.1 1015.3 0.0
28/11:00pm 14.7 13.9 11.8 83 1.6 SW 7 11 4 6 1016.3 1015.5 0.0
28/10:30pm 15.1 13.7 12.2 83 1.6 SW 11 15 6 8 1016.3 1015.5 0.0
28/10:00pm 14.2 13.6 11.7 85 1.4 SW 6 7 3 4 1016.6 1015.8 0.0
28/09:30pm 14.1 13.5 11.6 85 1.4 SW 6 9 3 5 1016.8 1016.0 0.0
28/09:00pm 14.4 13.0 12.1 86 1.3 SW 11 13 6 7 1016.7 1015.9 0.0
28/08:30pm 14.7 13.2 12.0 84 1.5 SW 11 13 6 7 1016.5 1015.7 0.0
28/08:00pm 15.0 13.5 12.0 82 1.6 SSW 11 15 6 8 1016.4 1015.6 0.0
28/07:30pm 15.2 12.5 11.6 79 2.0 SSW 17 24 9 13 1016.2 1015.4 0.0
28/07:00pm 15.6 12.7 12.2 80 1.9 SSW 19 26 10 14 1015.9 1015.1 0.0
28/06:30pm 16.1 12.9 11.9 76 2.3 SSW 20 28 11 15 1015.6 1014.8 0.0
28/06:00pm 16.7 12.2 11.4 71 2.9 SSW 26 35 14 19 1015.0 1014.2 0.0
28/05:30pm 17.9 12.6 11.2 65 3.7 SSW 30 37 16 20 1014.5 1013.8 0.0
28/05:00pm 19.1 13.6 11.7 62 4.1 SSW 32 43 17 23 1014.2 1013.5 0.0
28/04:30pm 19.9 14.3 11.4 58 4.7 SSW 32 39 17 21 1013.8 1013.1 0.0
28/04:00pm 20.1 14.8 11.3 57 4.9 SSW 30 41 16 22 1013.4 1012.6 0.0
28/03:30pm 20.8 16.5 10.9 53 5.5 SSW 24 33 13 18 1013.2 1012.4 0.0
28/03:00pm 21.7 16.6 12.0 54 5.5 SW 30 39 16 21 1013.3 1012.5 0.0
28/02:30pm 21.2 16.2 11.0 52 5.7 SW 28 43 15 23 1013.2 1012.4 0.0
28/02:00pm 21.6 16.4 10.4 49 6.2 SW 28 37 15 20 1013.2 1012.4 0.0
28/01:30pm 21.3 14.6 11.1 52 5.7 SW 37 52 20 28 1013.1 1012.3 0.0
28/01:22pm 22.5 16.3 10.0 45 6.9 WSW 33 52 18 28 1012.7 1011.9 0.0
28/01:00pm 22.7 16.1 8.4 40 7.6 WSW 33 46 18 25 1012.7 1011.9 0.0
28/12:30pm 22.5 14.7 8.2 40 7.6 WSW 39 52 21 28 1012.8 1012.0 0.0
28/12:00pm 22.0 15.8 9.5 45 6.8 WSW 32 41 17 22 1013.0 1012.2 0.0
28/11:41am 21.7 15.9 9.6 46 6.6 W 30 50 16 27 1013.0 1012.2 0.0
28/11:30am 22.7 16.4 9.8 44 7.1 W 33 46 18 25 1013.1 1012.3 0.0
28/11:00am 21.5 14.3 9.1 45 6.7 WSW 37 50 20 27 1013.2 1012.4 0.0
28/10:30am 21.7 15.3 9.3 45 6.7 W 33 48 18 26 1013.0 1012.2 0.0
28/10:00am 20.4 13.5 9.0 48 6.1 W 35 44 19 24 1013.4 1012.6 0.0
28/09:30am 20.5 14.1 9.4 49 6.0 W 33 44 18 24 1013.3 1012.5 0.0
28/09:00am 19.7 13.4 9.6 52 5.4 W 33 44 18 24 1013.2 1012.4 0.0
28/08:30am 19.1 12.8 9.6 54 5.1 W 33 48 18 26 1012.6 1011.8 0.0
28/08:00am 18.4 10.3 10.0 58 4.5 WSW 43 52 23 28 1012.5 1011.7 0.0
28/07:30am 19.4 11.8 11.9 62 4.2 W 43 54 23 29 1011.8 1011.0 0.0
28/07:00am 20.0 15.6 14.1 69 3.4 W 30 39 16 21 1011.2 1010.4 0.0
28/06:30am 20.1 15.4 14.2 69 3.5 W 32 46 17 25 1010.7 1009.9 0.0
28/06:00am 20.1 17.6 15.1 73 3.0 W 22 35 12 19 1010.3 1009.5 0.0
28/05:30am 20.0 18.0 15.0 73 3.0 WNW 19 28 10 15 1010.0 1009.3 0.0
28/05:00am 20.0 18.1 15.2 74 2.9 WNW 19 28 10 15 1009.8 1009.1 0.0
28/04:30am 20.0 18.5 15.4 75 2.7 WNW 17 26 9 14 1009.4 1008.6 0.0
28/04:00am 20.1 18.7 15.5 75 2.8 WNW 17 24 9 13 1009.2 1008.4 0.0
28/03:30am 20.0 18.6 15.6 76 2.6 WNW 17 26 9 14 1009.2 1008.4 0.0
28/03:00am 19.0 18.3 15.5 80 2.1 NW 13 19 7 10 1009.1 1008.3 0.0
28/02:30am 18.8 18.3 15.9 83 1.7 WNW 13 15 7 8 1009.2 1008.4 0.0
28/02:00am 19.0 18.6 16.2 84 1.7 NW 13 19 7 10 1009.3 1008.5 0.0
28/01:30am 18.6 18.8 16.8 89 1.1 NW 11 15 6 8 1009.2 1008.4 0.0
28/01:00am 18.2 18.5 16.9 92 0.8 NNW 11 15 6 8 1009.1 1008.3 0.0
28/12:30am 18.2 18.8 16.9 92 0.8 NW 9 11 5 6 1009.3 1008.5 0.0
28/12:00am 18.3 19.0 17.0 92 0.8 NW 9 11 5 6 1009.2 1008.4 0.0
 
Date/Time
WST
Temp
°C
App
Temp
°C
Dew
Point
°C
Rel
Hum
%
Delta-T
°C
Wind Press
QNH
hPa
Press
MSL
hPa
Rain since
9am
mm
Dir  Spd
km/h
Gust
km/h
Spd
kts
Gust
kts
27/11:30pm 18.2 19.1 16.7 91 0.9 NW 7 11 4 6 1009.4 1008.6 0.0
27/11:00pm 18.3 19.2 16.6 90 1.0 NW 7 7 4 4 1009.6 1008.9 0.0
27/10:30pm 18.7 19.8 16.7 88 1.2 WNW 6 6 3 3 1009.6 1008.9 0.0
27/10:00pm 18.9 19.8 16.7 87 1.3 SW 7 9 4 5 1009.6 1008.9 0.0
27/09:30pm 19.4 19.6 16.8 85 1.6 SSW 11 13 6 7 1009.5 1008.7 0.0
27/09:00pm 20.0 19.5 16.8 82 2.0 SSW 15 19 8 10 1009.5 1008.7 0.0
27/08:30pm 20.6 19.9 16.4 77 2.6 S 15 20 8 11 1009.3 1008.5 0.0
27/08:00pm 21.2 20.4 16.2 73 3.0 S 15 22 8 12 1009.2 1008.4 0.0
27/07:30pm 23.2 20.8 15.5 62 4.7 SSW 22 28 12 15 1009.0 1008.2 0.0
27/07:10pm 25.5 22.2 12.7 45 7.5 WSW 22 35 12 19 1008.4 1007.6 0.0
27/07:00pm 30.6 27.8 10.0 28 11.8 WNW 15 20 8 11 1008.1 1007.3 0.0
27/06:30pm 31.5 28.5 7.9 23 13.1 NW 13 19 7 10 1007.7 1006.9 0.0
27/06:00pm 32.7 28.5 7.5 21 14.0 NW 19 28 10 15 1007.7 1006.9 0.0
27/05:30pm 33.5 28.4 7.5 20 14.5 NW 24 39 13 21 1007.8 1007.0 0.0
27/05:00pm 34.0 28.0 7.1 19 15.0 NW 28 48 15 26 1007.6 1006.8 0.0
27/04:30pm 34.2 27.9 7.3 19 15.0 NW 30 44 16 24 1007.8 1007.0 0.0
27/04:00pm 34.6 28.3 7.6 19 15.2 NNW 30 44 16 24 1007.9 1007.1 0.0
27/03:30pm 34.9 27.6 7.1 18 15.5 NNW 35 50 19 27 1008.0 1007.2 0.0
27/03:00pm 34.7 27.3 6.9 18 15.5 NNW 35 57 19 31 1008.3 1007.5 0.0
27/02:55pm 35.0 28.8 7.9 19 15.3 NNW 30 56 16 30 1008.4 1007.6 0.0
27/02:30pm 34.9 29.5 7.9 19 15.2 NNW 26 43 14 23 1008.7 1007.9 0.0
27/02:00pm 35.4 29.5 9.0 20 15.2 NNW 30 41 16 22 1009.2 1008.4 0.0
27/01:30pm 34.3 28.3 8.8 21 14.6 NNW 30 48 16 26 1009.8 1009.1 0.0
27/01:00pm 32.6 25.5 8.1 22 13.7 N 35 46 19 25 1010.6 1009.8 0.0

Other formats

Comma delimited format used in spreadsheet applications
http://www.bom.gov.au/fwo/IDW60801/IDW60801.95644.axf

JavaScript Object Notation format (JSON) in row-major order
http://www.bom.gov.au/fwo/IDW60801/IDW60801.95644.json

Data quality

Most of these data are generated automatically and are frequently updated. Quality checks on data are not normally performed. It is possible for incorrect values to appear. Refer to information at About Latest Weather Observations and please check the disclaimer before using these data.